sensor_id;sensor_type;location;lat;lon;timestamp;pressure;altitude;pressure_sealevel;temperature;humidity
12987;BME280;58897;51.960;5.582;2022-12-07T00:01:26;101513.97;;;4.50;100.00
12987;BME280;58897;51.960;5.582;2022-12-07T00:03:56;101515.03;;;4.60;100.00
12987;BME280;58897;51.960;5.582;2022-12-07T00:06:30;101505.94;;;4.50;100.00
12987;BME280;58897;51.960;5.582;2022-12-07T00:08:57;101506.59;;;4.53;100.00
12987;BME280;58897;51.960;5.582;2022-12-07T00:11:25;101515.59;;;4.40;100.00
12987;BME280;58897;51.960;5.582;2022-12-07T00:13:58;101507.91;;;4.35;100.00
12987;BME280;58897;51.960;5.582;2022-12-07T00:16:30;101509.47;;;4.25;100.00
12987;BME280;58897;51.960;5.582;2022-12-07T00:18:58;101505.63;;;4.29;100.00
12987;BME280;58897;51.960;5.582;2022-12-07T00:21:28;101509.38;;;4.26;100.00
12987;BME280;58897;51.960;5.582;2022-12-07T00:23:55;101508.84;;;4.34;100.00
12987;BME280;58897;51.960;5.582;2022-12-07T00:26:24;101503.38;;;4.10;100.00
12987;BME280;58897;51.960;5.582;2022-12-07T00:28:53;101504.03;;;4.26;100.00
12987;BME280;58897;51.960;5.582;2022-12-07T00:31:22;101502.09;;;4.16;100.00
12987;BME280;58897;51.960;5.582;2022-12-07T00:33:53;101492.69;;;4.35;100.00
12987;BME280;58897;51.960;5.582;2022-12-07T00:36:22;101495.47;;;4.21;100.00
12987;BME280;58897;51.960;5.582;2022-12-07T00:38:53;101498.38;;;4.18;100.00
12987;BME280;58897;51.960;5.582;2022-12-07T00:41:27;101495.56;;;4.20;100.00
12987;BME280;58897;51.960;5.582;2022-12-07T00:43:55;101490.22;;;4.20;100.00
12987;BME280;58897;51.960;5.582;2022-12-07T00:46:25;101489.16;;;4.10;100.00
12987;BME280;58897;51.960;5.582;2022-12-07T00:48:52;101493.13;;;4.17;100.00
12987;BME280;58897;51.960;5.582;2022-12-07T00:51:24;101488.00;;;4.14;100.00
12987;BME280;58897;51.960;5.582;2022-12-07T00:53:52;101488.31;;;4.22;100.00
12987;BME280;58897;51.960;5.582;2022-12-07T00:56:24;101486.38;;;4.11;100.00
12987;BME280;58897;51.960;5.582;2022-12-07T00:58:55;101483.81;;;4.10;100.00
12987;BME280;58897;51.960;5.582;2022-12-07T01:01:23;101481.25;;;3.96;100.00
12987;BME280;58897;51.960;5.582;2022-12-07T01:03:51;101475.78;;;3.97;100.00
12987;BME280;58897;51.960;5.582;2022-12-07T01:06:19;101486.06;;;3.91;100.00
12987;BME280;58897;51.960;5.582;2022-12-07T01:08:46;101479.00;;;4.02;100.00
12987;BME280;58897;51.960;5.582;2022-12-07T01:11:16;101472.25;;;3.97;100.00
12987;BME280;58897;51.960;5.582;2022-12-07T01:13:43;101478.56;;;3.96;100.00
12987;BME280;58897;51.960;5.582;2022-12-07T01:16:13;101473.53;;;3.91;100.00
12987;BME280;58897;51.960;5.582;2022-12-07T01:18:41;101474.72;;;3.87;100.00
12987;BME280;58897;51.960;5.582;2022-12-07T01:21:20;101482.31;;;3.81;100.00
12987;BME280;58897;51.960;5.582;2022-12-07T01:23:48;101483.25;;;3.80;100.00
12987;BME280;58897;51.960;5.582;2022-12-07T01:26:18;101491.25;;;3.67;100.00
12987;BME280;58897;51.960;5.582;2022-12-07T01:28:49;101486.66;;;3.82;100.00
12987;BME280;58897;51.960;5.582;2022-12-07T01:31:21;101492.47;;;3.88;100.00
12987;BME280;58897;51.960;5.582;2022-12-07T01:33:52;101495.22;;;3.74;100.00
12987;BME280;58897;51.960;5.582;2022-12-07T01:36:24;101481.44;;;3.80;100.00
12987;BME280;58897;51.960;5.582;2022-12-07T01:38:55;101494.91;;;3.91;100.00
12987;BME280;58897;51.960;5.582;2022-12-07T01:41:25;101493.09;;;3.92;100.00
12987;BME280;58897;51.960;5.582;2022-12-07T01:44:24;101489.88;;;3.87;100.00
12987;BME280;58897;51.960;5.582;2022-12-07T01:46:58;101483.22;;;3.67;100.00
12987;BME280;58897;51.960;5.582;2022-12-07T01:52:06;101484.13;;;3.80;100.00
12987;BME280;58897;51.960;5.582;2022-12-07T01:54:37;101486.50;;;3.58;100.00
12987;BME280;58897;51.960;5.582;2022-12-07T01:57:06;101483.66;;;3.73;100.00
12987;BME280;58897;51.960;5.582;2022-12-07T01:59:34;101490.88;;;3.86;100.00
12987;BME280;58897;51.960;5.582;2022-12-07T02:02:07;101485.19;;;3.78;100.00
12987;BME280;58897;51.960;5.582;2022-12-07T02:04:37;101480.84;;;3.62;100.00
12987;BME280;58897;51.960;5.582;2022-12-07T02:07:04;101477.63;;;3.57;100.00
12987;BME280;58897;51.960;5.582;2022-12-07T02:09:32;101475.84;;;3.70;100.00
12987;BME280;58897;51.960;5.582;2022-12-07T02:11:59;101472.84;;;3.62;100.00
12987;BME280;58897;51.960;5.582;2022-12-07T02:14:26;101473.63;;;3.64;100.00
12987;BME280;58897;51.960;5.582;2022-12-07T02:17:13;101472.34;;;3.70;100.00
12987;BME280;58897;51.960;5.582;2022-12-07T02:22:51;101473.63;;;3.77;100.00
12987;BME280;58897;51.960;5.582;2022-12-07T02:25:33;101474.50;;;3.78;100.00
12987;BME280;58897;51.960;5.582;2022-12-07T02:28:17;101485.09;;;3.52;100.00
12987;BME280;58897;51.960;5.582;2022-12-07T02:30:50;101482.97;;;3.57;100.00
12987;BME280;58897;51.960;5.582;2022-12-07T02:33:49;101478.63;;;3.56;100.00
12987;BME280;58897;51.960;5.582;2022-12-07T02:39:02;101488.41;;;3.83;100.00
12987;BME280;58897;51.960;5.582;2022-12-07T02:41:40;101488.47;;;3.68;100.00
12987;BME280;58897;51.960;5.582;2022-12-07T02:44:11;101485.16;;;3.65;100.00
12987;BME280;58897;51.960;5.582;2022-12-07T02:46:49;101483.78;;;3.72;100.00
12987;BME280;58897;51.960;5.582;2022-12-07T02:49:21;101486.44;;;3.72;100.00
12987;BME280;58897;51.960;5.582;2022-12-07T02:51:50;101480.03;;;3.74;100.00
12987;BME280;58897;51.960;5.582;2022-12-07T02:54:20;101478.56;;;3.83;100.00
12987;BME280;58897;51.960;5.582;2022-12-07T02:56:50;101486.66;;;3.69;100.00
12987;BME280;58897;51.960;5.582;2022-12-07T03:02:54;101479.41;;;3.84;100.00
12987;BME280;58897;51.960;5.582;2022-12-07T03:11:12;101471.03;;;3.75;100.00
12987;BME280;58897;51.960;5.582;2022-12-07T03:14:21;101476.31;;;3.77;100.00
12987;BME280;58897;51.960;5.582;2022-12-07T03:16:45;101479.41;;;3.84;100.00
12987;BME280;58897;51.960;5.582;2022-12-07T03:19:19;101470.44;;;3.85;100.00
12987;BME280;58897;51.960;5.582;2022-12-07T03:21:51;101464.34;;;3.83;100.00
12987;BME280;58897;51.960;5.582;2022-12-07T03:24:22;101473.31;;;3.94;100.00
12987;BME280;58897;51.960;5.582;2022-12-07T03:26:55;101469.88;;;3.80;100.00
12987;BME280;58897;51.960;5.582;2022-12-07T03:29:33;101469.34;;;3.74;100.00
12987;BME280;58897;51.960;5.582;2022-12-07T03:32:16;101464.75;;;3.77;100.00
12987;BME280;58897;51.960;5.582;2022-12-07T03:35:00;101471.50;;;3.82;100.00
12987;BME280;58897;51.960;5.582;2022-12-07T03:37:34;101464.63;;;3.78;100.00
12987;BME280;58897;51.960;5.582;2022-12-07T03:42:34;101475.91;;;3.83;100.00
12987;BME280;58897;51.960;5.582;2022-12-07T03:45:02;101462.81;;;3.66;100.00
12987;BME280;58897;51.960;5.582;2022-12-07T03:50:31;101450.09;;;3.69;100.00
12987;BME280;58897;51.960;5.582;2022-12-07T03:53:22;101454.03;;;3.64;100.00
12987;BME280;58897;51.960;5.582;2022-12-07T03:55:52;101456.06;;;3.60;100.00
12987;BME280;58897;51.960;5.582;2022-12-07T03:58:21;101459.94;;;3.69;100.00
12987;BME280;58897;51.960;5.582;2022-12-07T04:00:49;101456.50;;;3.67;100.00
12987;BME280;58897;51.960;5.582;2022-12-07T04:03:16;101460.78;;;3.57;100.00
12987;BME280;58897;51.960;5.582;2022-12-07T04:05:45;101453.28;;;3.49;100.00
12987;BME280;58897;51.960;5.582;2022-12-07T04:08:12;101451.00;;;3.43;100.00
12987;BME280;58897;51.960;5.582;2022-12-07T04:10:39;101451.22;;;3.40;100.00
12987;BME280;58897;51.960;5.582;2022-12-07T04:13:06;101445.34;;;3.48;100.00
12987;BME280;58897;51.960;5.582;2022-12-07T04:15:33;101446.97;;;3.50;100.00
12987;BME280;58897;51.960;5.582;2022-12-07T04:18:00;101449.53;;;3.52;100.00
12987;BME280;58897;51.960;5.582;2022-12-07T04:20:27;101452.75;;;3.57;100.00
12987;BME280;58897;51.960;5.582;2022-12-07T04:22:54;101447.50;;;3.55;100.00
12987;BME280;58897;51.960;5.582;2022-12-07T04:25:21;101455.66;;;3.66;100.00
12987;BME280;58897;51.960;5.582;2022-12-07T04:27:50;101458.13;;;3.69;100.00
12987;BME280;58897;51.960;5.582;2022-12-07T04:30:17;101464.53;;;3.67;100.00
12987;BME280;58897;51.960;5.582;2022-12-07T04:32:44;101457.38;;;3.67;100.00
12987;BME280;58897;51.960;5.582;2022-12-07T04:35:10;101452.88;;;3.68;100.00
12987;BME280;58897;51.960;5.582;2022-12-07T04:37:37;101446.69;;;3.80;100.00
12987;BME280;58897;51.960;5.582;2022-12-07T04:40:08;101452.03;;;3.67;100.00
12987;BME280;58897;51.960;5.582;2022-12-07T04:42:38;101455.53;;;3.68;100.00
12987;BME280;58897;51.960;5.582;2022-12-07T04:45:05;101455.78;;;3.65;100.00
12987;BME280;58897;51.960;5.582;2022-12-07T04:47:32;101445.38;;;3.60;100.00
12987;BME280;58897;51.960;5.582;2022-12-07T04:49:59;101443.56;;;3.73;100.00
12987;BME280;58897;51.960;5.582;2022-12-07T04:52:27;101443.56;;;3.73;100.00
12987;BME280;58897;51.960;5.582;2022-12-07T04:54:54;101444.44;;;3.87;100.00
12987;BME280;58897;51.960;5.582;2022-12-07T04:57:21;101432.69;;;3.77;100.00
12987;BME280;58897;51.960;5.582;2022-12-07T04:59:50;101441.22;;;3.82;100.00
12987;BME280;58897;51.960;5.582;2022-12-07T05:02:17;101442.94;;;3.70;100.00
12987;BME280;58897;51.960;5.582;2022-12-07T05:04:46;101445.28;;;3.62;100.00
12987;BME280;58897;51.960;5.582;2022-12-07T05:07:13;101444.63;;;3.58;100.00
12987;BME280;58897;51.960;5.582;2022-12-07T05:09:40;101440.66;;;3.51;100.00
12987;BME280;58897;51.960;5.582;2022-12-07T05:12:07;101438.53;;;3.56;100.00
12987;BME280;58897;51.960;5.582;2022-12-07T05:14:36;101449.63;;;3.50;100.00
12987;BME280;58897;51.960;5.582;2022-12-07T05:17:04;101447.28;;;3.46;100.00
12987;BME280;58897;51.960;5.582;2022-12-07T05:19:31;101447.44;;;3.69;100.00
12987;BME280;58897;51.960;5.582;2022-12-07T05:21:57;101438.22;;;3.61;100.00
12987;BME280;58897;51.960;5.582;2022-12-07T05:24:27;101437.03;;;3.52;100.00
12987;BME280;58897;51.960;5.582;2022-12-07T05:26:54;101438.09;;;3.50;100.00
12987;BME280;58897;51.960;5.582;2022-12-07T05:29:26;101437.28;;;3.62;100.00
12987;BME280;58897;51.960;5.582;2022-12-07T05:31:53;101438.09;;;3.62;100.00
12987;BME280;58897;51.960;5.582;2022-12-07T05:34:23;101431.94;;;3.74;100.00
12987;BME280;58897;51.960;5.582;2022-12-07T05:36:54;101429.06;;;3.78;100.00
12987;BME280;58897;51.960;5.582;2022-12-07T05:39:23;101424.53;;;3.78;100.00
12987;BME280;58897;51.960;5.582;2022-12-07T05:41:51;101426.69;;;3.73;100.00
12987;BME280;58897;51.960;5.582;2022-12-07T05:44:43;101432.06;;;3.86;100.00
12987;BME280;58897;51.960;5.582;2022-12-07T05:47:11;101430.75;;;3.66;100.00
12987;BME280;58897;51.960;5.582;2022-12-07T05:49:42;101435.56;;;3.73;100.00
12987;BME280;58897;51.960;5.582;2022-12-07T05:52:09;101429.78;;;3.54;100.00
12987;BME280;58897;51.960;5.582;2022-12-07T05:54:36;101425.94;;;3.58;100.00
12987;BME280;58897;51.960;5.582;2022-12-07T05:57:11;101424.44;;;3.67;100.00
12987;BME280;58897;51.960;5.582;2022-12-07T05:59:41;101425.94;;;3.58;100.00
12987;BME280;58897;51.960;5.582;2022-12-07T06:02:13;101425.84;;;3.72;100.00
12987;BME280;58897;51.960;5.582;2022-12-07T06:04:43;101429.47;;;3.71;100.00
12987;BME280;58897;51.960;5.582;2022-12-07T06:07:15;101424.44;;;3.67;100.00
12987;BME280;58897;51.960;5.582;2022-12-07T06:09:42;101425.41;;;3.66;100.00
12987;BME280;58897;51.960;5.582;2022-12-07T06:12:11;101427.00;;;3.68;100.00
12987;BME280;58897;51.960;5.582;2022-12-07T06:14:57;101432.75;;;3.62;100.00
12987;BME280;58897;51.960;5.582;2022-12-07T06:17:24;101432.66;;;3.64;100.00
12987;BME280;58897;51.960;5.582;2022-12-07T06:19:51;101429.13;;;3.63;100.00
12987;BME280;58897;51.960;5.582;2022-12-07T06:22:18;101438.44;;;3.58;100.00
12987;BME280;58897;51.960;5.582;2022-12-07T06:24:45;101444.50;;;3.60;100.00
12987;BME280;58897;51.960;5.582;2022-12-07T06:27:15;101430.53;;;3.69;100.00
12987;BME280;58897;51.960;5.582;2022-12-07T06:29:42;101436.94;;;3.66;100.00
12987;BME280;58897;51.960;5.582;2022-12-07T06:32:11;101435.72;;;3.45;100.00
12987;BME280;58897;51.960;5.582;2022-12-07T06:34:41;101439.47;;;3.43;100.00
12987;BME280;58897;51.960;5.582;2022-12-07T06:37:08;101439.16;;;3.47;100.00
12987;BME280;58897;51.960;5.582;2022-12-07T06:39:35;101438.59;;;3.42;100.00
12987;BME280;58897;51.960;5.582;2022-12-07T06:42:02;101438.53;;;3.44;100.00
12987;BME280;58897;51.960;5.582;2022-12-07T06:44:29;101437.41;;;3.34;100.00
12987;BME280;58897;51.960;5.582;2022-12-07T06:46:55;101442.00;;;3.32;100.00
12987;BME280;58897;51.960;5.582;2022-12-07T06:49:43;101441.13;;;3.31;100.00
12987;BME280;58897;51.960;5.582;2022-12-07T06:52:09;101438.03;;;3.25;100.00
12987;BME280;58897;51.960;5.582;2022-12-07T06:54:36;101437.84;;;3.28;100.00
12987;BME280;58897;51.960;5.582;2022-12-07T06:57:03;101444.13;;;3.27;100.00
12987;BME280;58897;51.960;5.582;2022-12-07T06:59:30;101439.50;;;3.16;100.00
12987;BME280;58897;51.960;5.582;2022-12-07T07:01:57;101438.16;;;3.23;100.00
12987;BME280;58897;51.960;5.582;2022-12-07T07:04:26;101435.75;;;3.19;100.00
12987;BME280;58897;51.960;5.582;2022-12-07T07:06:55;101439.94;;;3.23;100.00
12987;BME280;58897;51.960;5.582;2022-12-07T07:09:25;101441.91;;;3.33;100.00
12987;BME280;58897;51.960;5.582;2022-12-07T07:11:52;101448.09;;;3.34;100.00
12987;BME280;58897;51.960;5.582;2022-12-07T07:14:19;101445.34;;;3.48;100.00
12987;BME280;58897;51.960;5.582;2022-12-07T07:16:47;101444.09;;;3.53;100.00
12987;BME280;58897;51.960;5.582;2022-12-07T07:19:14;101441.97;;;3.58;100.00
12987;BME280;58897;51.960;5.582;2022-12-07T07:21:41;101443.34;;;3.64;100.00
12987;BME280;58897;51.960;5.582;2022-12-07T07:24:28;101436.28;;;3.50;100.00
12987;BME280;58897;51.960;5.582;2022-12-07T07:26:55;101448.41;;;3.29;100.00
12987;BME280;58897;51.960;5.582;2022-12-07T07:29:21;101438.72;;;3.41;100.00
12987;BME280;58897;51.960;5.582;2022-12-07T07:31:48;101445.28;;;3.49;100.00
12987;BME280;58897;51.960;5.582;2022-12-07T07:34:18;101443.31;;;3.39;100.00
12987;BME280;58897;51.960;5.582;2022-12-07T07:36:45;101441.59;;;3.38;100.00
12987;BME280;58897;51.960;5.582;2022-12-07T07:39:12;101446.81;;;3.39;100.00
12987;BME280;58897;51.960;5.582;2022-12-07T07:41:50;101444.88;;;3.29;100.00
12987;BME280;58897;51.960;5.582;2022-12-07T07:44:17;101454.44;;;3.19;100.00
12987;BME280;58897;51.960;5.582;2022-12-07T07:46:44;101445.19;;;3.24;100.00
12987;BME280;58897;51.960;5.582;2022-12-07T07:49:11;101449.72;;;3.36;100.00
12987;BME280;58897;51.960;5.582;2022-12-07T07:51:37;101450.34;;;3.40;100.00
12987;BME280;58897;51.960;5.582;2022-12-07T07:54:04;101453.88;;;3.40;100.00
12987;BME280;58897;51.960;5.582;2022-12-07T07:56:31;101449.84;;;3.47;100.00
12987;BME280;58897;51.960;5.582;2022-12-07T07:58:58;101453.13;;;3.38;100.00
12987;BME280;58897;51.960;5.582;2022-12-07T08:01:25;101449.63;;;3.50;100.00
12987;BME280;58897;51.960;5.582;2022-12-07T08:03:52;101446.97;;;3.50;100.00
12987;BME280;58897;51.960;5.582;2022-12-07T08:06:26;101449.63;;;3.50;100.00
12987;BME280;58897;51.960;5.582;2022-12-07T08:12:11;101454.78;;;3.53;100.00
12987;BME280;58897;51.960;5.582;2022-12-07T08:14:38;101456.03;;;3.48;100.00
12987;BME280;58897;51.960;5.582;2022-12-07T08:17:05;101457.38;;;3.67;100.00
12987;BME280;58897;51.960;5.582;2022-12-07T08:19:32;101456.22;;;3.97;100.00
12987;BME280;58897;51.960;5.582;2022-12-07T08:22:13;101463.69;;;3.92;100.00
12987;BME280;58897;51.960;5.582;2022-12-07T08:24:40;101460.94;;;3.81;100.00
12987;BME280;58897;51.960;5.582;2022-12-07T08:27:07;101463.16;;;3.74;100.00
12987;BME280;58897;51.960;5.582;2022-12-07T08:29:34;101462.47;;;3.70;100.00
12987;BME280;58897;51.960;5.582;2022-12-07T08:32:04;101453.13;;;3.78;100.00
12987;BME280;58897;51.960;5.582;2022-12-07T08:34:35;101458.25;;;3.81;100.00
12987;BME280;58897;51.960;5.582;2022-12-07T08:37:03;101454.81;;;3.91;100.00
12987;BME280;58897;51.960;5.582;2022-12-07T08:39:32;101464.03;;;4.00;100.00
12987;BME280;58897;51.960;5.582;2022-12-07T08:42:02;101459.41;;;4.02;100.00
12987;BME280;58897;51.960;5.582;2022-12-07T08:44:29;101463.94;;;4.14;100.00
12987;BME280;58897;51.960;5.582;2022-12-07T08:46:59;101461.13;;;4.28;100.00
12987;BME280;58897;51.960;5.582;2022-12-07T08:49:36;101461.34;;;4.25;100.00
12987;BME280;58897;51.960;5.582;2022-12-07T08:52:05;101459.84;;;4.33;100.00
12987;BME280;58897;51.960;5.582;2022-12-07T08:54:40;101460.53;;;4.73;100.00
12987;BME280;58897;51.960;5.582;2022-12-07T08:57:13;101458.69;;;5.69;100.00
12987;BME280;58897;51.960;5.582;2022-12-07T08:59:40;101458.13;;;6.22;100.00
12987;BME280;58897;51.960;5.582;2022-12-07T09:02:37;101461.09;;;5.60;100.00
12987;BME280;58897;51.960;5.582;2022-12-07T09:21:10;101467.38;;;4.65;100.00
12987;BME280;58897;51.960;5.582;2022-12-07T10:43:32;101402.00;;;7.06;100.00
12987;BME280;58897;51.960;5.582;2022-12-07T12:25:46;101312.38;;;10.82;94.45
12987;BME280;58897;51.960;5.582;2022-12-07T12:28:41;101309.41;;;11.90;87.00
12987;BME280;58897;51.960;5.582;2022-12-07T12:31:39;101294.13;;;12.56;81.48
12987;BME280;58897;51.960;5.582;2022-12-07T12:34:37;101287.59;;;12.99;79.47
12987;BME280;58897;51.960;5.582;2022-12-07T12:43:00;101283.22;;;13.30;71.89
12987;BME280;58897;51.960;5.582;2022-12-07T12:45:27;101278.13;;;14.14;70.24
12987;BME280;58897;51.960;5.582;2022-12-07T12:47:58;101275.50;;;14.29;70.97
12987;BME280;58897;51.960;5.582;2022-12-07T12:50:34;101273.44;;;14.39;68.70
12987;BME280;58897;51.960;5.582;2022-12-07T12:53:22;101264.16;;;13.79;69.51
12987;BME280;58897;51.960;5.582;2022-12-07T12:55:54;101262.16;;;14.19;69.00
12987;BME280;58897;51.960;5.582;2022-12-07T12:58:33;101262.13;;;13.73;70.08
12987;BME280;58897;51.960;5.582;2022-12-07T13:01:37;101261.78;;;13.76;69.19
12987;BME280;58897;51.960;5.582;2022-12-07T13:04:21;101263.97;;;13.80;67.18
12987;BME280;58897;51.960;5.582;2022-12-07T13:06:49;101275.00;;;11.56;76.68
12987;BME280;58897;51.960;5.582;2022-12-07T13:09:28;101265.66;;;11.25;81.25
12987;BME280;58897;51.960;5.582;2022-12-07T13:11:59;101271.44;;;10.15;84.28
12987;BME280;58897;51.960;5.582;2022-12-07T13:14:41;101266.03;;;9.87;88.92
12987;BME280;58897;51.960;5.582;2022-12-07T13:17:53;101261.47;;;9.42;90.15
12987;BME280;58897;51.960;5.582;2022-12-07T13:20:00;101265.91;;;9.33;92.20
12987;BME280;58897;51.960;5.582;2022-12-07T13:25:03;101266.47;;;9.46;95.40
12987;BME280;58897;51.960;5.582;2022-12-07T13:27:31;101259.94;;;9.29;94.81
12987;BME280;58897;51.960;5.582;2022-12-07T13:29:58;101257.94;;;9.31;97.56
12987;BME280;58897;51.960;5.582;2022-12-07T13:32:27;101245.31;;;10.15;90.51
12987;BME280;58897;51.960;5.582;2022-12-07T13:34:54;101242.81;;;10.67;88.62
12987;BME280;58897;51.960;5.582;2022-12-07T13:37:32;101245.63;;;9.29;93.01
12987;BME280;58897;51.960;5.582;2022-12-07T13:40:21;101241.56;;;8.87;97.63
12987;BME280;58897;51.960;5.582;2022-12-07T13:42:57;101237.63;;;8.13;99.76
12987;BME280;58897;51.960;5.582;2022-12-07T13:45:33;101229.91;;;8.29;100.00
12987;BME280;58897;51.960;5.582;2022-12-07T14:18:34;101218.88;;;7.52;100.00
12987;BME280;58897;51.960;5.582;2022-12-07T14:23:38;101211.78;;;7.21;100.00
12987;BME280;58897;51.960;5.582;2022-12-07T14:26:29;101209.69;;;7.24;100.00
12987;BME280;58897;51.960;5.582;2022-12-07T14:29:30;101207.22;;;7.42;100.00
12987;BME280;58897;51.960;5.582;2022-12-07T14:31:59;101203.47;;;7.24;100.00
12987;BME280;58897;51.960;5.582;2022-12-07T14:34:28;101209.50;;;7.16;100.00
12987;BME280;58897;51.960;5.582;2022-12-07T14:36:54;101204.19;;;6.84;100.00
12987;BME280;58897;51.960;5.582;2022-12-07T14:39:20;101203.78;;;6.89;100.00
12987;BME280;58897;51.960;5.582;2022-12-07T14:41:47;101203.72;;;6.59;100.00
12987;BME280;58897;51.960;5.582;2022-12-07T14:44:21;101205.81;;;6.55;100.00
12987;BME280;58897;51.960;5.582;2022-12-07T14:46:52;101197.88;;;6.54;100.00
12987;BME280;58897;51.960;5.582;2022-12-07T14:49:39;101204.22;;;6.53;100.00
12987;BME280;58897;51.960;5.582;2022-12-07T14:52:43;101199.91;;;6.41;100.00
12987;BME280;58897;51.960;5.582;2022-12-07T14:55:30;101195.06;;;6.23;100.00
12987;BME280;58897;51.960;5.582;2022-12-07T14:57:57;101195.06;;;6.23;100.00
12987;BME280;58897;51.960;5.582;2022-12-07T15:00:27;101195.69;;;6.16;100.00
12987;BME280;58897;51.960;5.582;2022-12-07T15:02:54;101187.25;;;6.20;100.00
12987;BME280;58897;51.960;5.582;2022-12-07T15:05:21;101187.00;;;6.23;100.00
12987;BME280;58897;51.960;5.582;2022-12-07T15:07:48;101194.13;;;6.13;100.00
12987;BME280;58897;51.960;5.582;2022-12-07T15:14:10;101187.66;;;6.05;100.00
12987;BME280;58897;51.960;5.582;2022-12-07T15:17:20;101188.81;;;5.91;100.00
12987;BME280;58897;51.960;5.582;2022-12-07T15:19:57;101186.00;;;5.82;100.00
12987;BME280;58897;51.960;5.582;2022-12-07T15:22:23;101181.25;;;5.74;100.00
12987;BME280;58897;51.960;5.582;2022-12-07T15:24:50;101182.13;;;5.86;100.00
12987;BME280;58897;51.960;5.582;2022-12-07T15:27:16;101180.91;;;5.79;100.00
12987;BME280;58897;51.960;5.582;2022-12-07T15:29:43;101180.91;;;5.68;100.00
12987;BME280;58897;51.960;5.582;2022-12-07T15:32:09;101180.66;;;5.71;100.00
12987;BME280;58897;51.960;5.582;2022-12-07T15:34:36;101185.16;;;5.70;100.00
12987;BME280;58897;51.960;5.582;2022-12-07T15:37:06;101175.56;;;5.68;100.00
12987;BME280;58897;51.960;5.582;2022-12-07T15:39:33;101178.59;;;5.52;100.00
12987;BME280;58897;51.960;5.582;2022-12-07T15:42:00;101177.13;;;5.59;100.00
12987;BME280;58897;51.960;5.582;2022-12-07T15:44:27;101169.72;;;5.51;100.00
12987;BME280;58897;51.960;5.582;2022-12-07T15:47:11;101172.00;;;5.45;100.00
12987;BME280;58897;51.960;5.582;2022-12-07T15:49:38;101178.25;;;5.34;100.00
12987;BME280;58897;51.960;5.582;2022-12-07T15:52:04;101179.44;;;5.19;100.00
12987;BME280;58897;51.960;5.582;2022-12-07T15:54:31;101173.88;;;5.44;100.00
12987;BME280;58897;51.960;5.582;2022-12-07T15:56:58;101167.16;;;5.28;100.00
12987;BME280;58897;51.960;5.582;2022-12-07T15:59:26;101168.25;;;5.36;100.00
12987;BME280;58897;51.960;5.582;2022-12-07T16:01:54;101167.16;;;5.28;100.00
12987;BME280;58897;51.960;5.582;2022-12-07T16:04:21;101167.88;;;5.30;100.00
12987;BME280;58897;51.960;5.582;2022-12-07T16:06:48;101159.59;;;5.33;100.00
12987;BME280;58897;51.960;5.582;2022-12-07T16:09:16;101165.72;;;5.24;100.00
12987;BME280;58897;51.960;5.582;2022-12-07T16:11:42;101162.19;;;5.23;100.00
12987;BME280;58897;51.960;5.582;2022-12-07T16:14:09;101158.78;;;5.21;100.00
12987;BME280;58897;51.960;5.582;2022-12-07T16:16:35;101158.03;;;5.08;100.00
12987;BME280;58897;51.960;5.582;2022-12-07T16:19:02;101155.84;;;5.13;100.00
12987;BME280;58897;51.960;5.582;2022-12-07T16:21:29;101151.81;;;4.96;100.00
12987;BME280;58897;51.960;5.582;2022-12-07T16:23:57;101157.41;;;5.05;100.00
12987;BME280;58897;51.960;5.582;2022-12-07T16:26:24;101153.53;;;4.97;100.00
12987;BME280;58897;51.960;5.582;2022-12-07T16:28:52;101149.25;;;4.95;100.00
12987;BME280;58897;51.960;5.582;2022-12-07T16:31:21;101154.47;;;4.96;100.00
12987;BME280;58897;51.960;5.582;2022-12-07T16:33:49;101154.09;;;5.01;100.00
12987;BME280;58897;51.960;5.582;2022-12-07T16:36:17;101147.19;;;4.87;100.00
12987;BME280;58897;51.960;5.582;2022-12-07T16:39:04;101144.59;;;4.86;100.00
12987;BME280;58897;51.960;5.582;2022-12-07T16:41:31;101135.72;;;4.85;100.00
12987;BME280;58897;51.960;5.582;2022-12-07T16:44:06;101138.38;;;4.85;100.00
12987;BME280;58897;51.960;5.582;2022-12-07T16:46:34;101139.50;;;4.72;100.00
12987;BME280;58897;51.960;5.582;2022-12-07T16:49:02;101129.13;;;4.67;100.00
12987;BME280;58897;51.960;5.582;2022-12-07T16:51:29;101131.94;;;4.66;100.00
12987;BME280;58897;51.960;5.582;2022-12-07T16:53:56;101130.22;;;4.65;100.00
12987;BME280;58897;51.960;5.582;2022-12-07T16:56:22;101131.09;;;4.76;100.00
12987;BME280;58897;51.960;5.582;2022-12-07T16:58:49;101123.31;;;4.73;100.00
12987;BME280;58897;51.960;5.582;2022-12-07T17:01:18;101121.56;;;4.50;100.00
12987;BME280;58897;51.960;5.582;2022-12-07T17:03:45;101130.75;;;4.35;100.00
12987;BME280;58897;51.960;5.582;2022-12-07T17:06:14;101126.28;;;4.47;100.00
12987;BME280;58897;51.960;5.582;2022-12-07T17:08:42;101123.97;;;4.42;100.00
12987;BME280;58897;51.960;5.582;2022-12-07T17:11:13;101122.31;;;4.63;100.00
12987;BME280;58897;51.960;5.582;2022-12-07T17:13:40;101120.00;;;4.59;100.00
12987;BME280;58897;51.960;5.582;2022-12-07T17:16:25;101110.47;;;4.55;100.00
12987;BME280;58897;51.960;5.582;2022-12-07T17:18:52;101116.81;;;4.65;100.00
12987;BME280;58897;51.960;5.582;2022-12-07T17:21:19;101124.72;;;4.55;100.00
12987;BME280;58897;51.960;5.582;2022-12-07T17:23:46;101113.78;;;4.58;100.00
12987;BME280;58897;51.960;5.582;2022-12-07T17:26:18;101119.13;;;4.58;100.00
12987;BME280;58897;51.960;5.582;2022-12-07T17:28:45;101116.09;;;4.63;100.00
12987;BME280;58897;51.960;5.582;2022-12-07T17:31:14;101111.47;;;4.65;100.00
12987;BME280;58897;51.960;5.582;2022-12-07T17:33:41;101105.41;;;4.63;100.00
12987;BME280;58897;51.960;5.582;2022-12-07T17:38:44;101101.13;;;4.60;100.00
12987;BME280;58897;51.960;5.582;2022-12-07T17:41:13;101099.19;;;4.62;100.00